Impacts TAF Board
For situational awareness. Not to be used for flight planning purposes.
IDs:

KDLS - The Dalles Muni, OR, US

Issued at 0536 UTC 22 Oct 2021
Updated at 0648 UTC 22 Oct 2021
Potential Impact None Slight Moderate High
Time0553Z 22/07Z 22/08Z 22/09Z 22/10Z 22/11Z 22/12Z 22/13Z 22/14Z 22/15Z 22/16Z 22/17Z 22/18Z 22/19Z>>
Type OBS PRVL
  [TEMP]  
PRVL PRVL
  [TEMP]  
PRVL
  [TEMP]  
PRVL
  [TEMP]  
PRVL
  [TEMP]  
PRVL PRVL PRVL PRVL PRVL PRVL PRVL
VIS 10 >6
  [6]  
6 6
  [4]  
6
  [4]  
6
  [4]  
6
  [4]  
6 6 6 6 6 6 6
CIG 65 80
  [60]  
40 40
  [15]  
40
  [15]  
40
  [15]  
40
  [15]  
40 40 40 40 40 40 40
Cover OVC OVC
  [OVC]  
OVC OVC
  [OVC]  
OVC
  [OVC]  
OVC
  [OVC]  
OVC
  [OVC]  
OVC OVC OVC OVC OVC OVC OVC
FltCat VFR VFR
  [VFR]  
VFR VFR
  [MVFR]  
VFR
  [MVFR]  
VFR
  [MVFR]  
VFR
  [MVFR]  
VFR VFR VFR VFR VFR VFR VFR
WX -- -SHRA
  [-RA BR]  
-RA BR -RA BR
  [RA BR]  
-RA BR
  [RA BR]  
-RA BR
  [RA BR]  
-RA BR
  [RA BR]  
-RA BR -RA BR -RA BR -RA BR -RA BR -RA BR -RA BR
WDir 290 310
[310]
300 300
[300]
300
[300]
300
[300]
300
[300]
300 300 300 300 300 300 300
WSpd 10 13
  [13]  
11 11
  [11]  
11
  [11]  
11
  [11]  
11
  [11]  
11 11 7 7 7 7 7
WGst -- 20
  [20]  
-- --
  [--]  
--
  [--]  
--
  [--]  
--
  [--]  
-- -- -- -- -- -- --
Raw TAF
KDLS 220536Z 2206/2306 31013G20KT P6SM -SHRA OVC080
  TEMPO 2206/2208 6SM -RA BR OVC060
  FM220800 30011KT 6SM -RA BR OVC040
  TEMPO 2209/2213 4SM RA BR OVC015
  FM221500 30007KT 6SM -RA BR OVC040
  FM222000 30014G21KT P6SM VCSH BKN035 OVC050
  FM230200 30010KT P6SM BKN070


Raw METAR
KDLS 220553Z AUTO 29010KT 10SM OVC065 14/11 A2979 RMK AO2 RAE36 SLP088 P0005 60009 T01390111 10183 20139 50019
KDLS 220453Z AUTO 32015KT 6SM RA BR BKN065 OVC080 14/12 A2980 RMK AO2 PK WND 32026/0400 SLP092 P0003 T01390117
KDLS 220353Z AUTO 31019G26KT 10SM -RA OVC080 15/09 A2977 RMK AO2 PK WND 31026/0353 RAB00E11B33 SLP080 P0001 T01500094

METAR Board
Radar Display
Forecast Discussion
For situational awareness. Not to be used for flight planning purposes.